Skip Navigation Links
NOAA logo - Click to go to the NOAA homepage
NOAA's National Weather Service
Alaska Aviation Weather Unit
  NWS logo - Click to go to the NWS homepage
Left Navbar Graphic     03 AKDT = 11 GMT

   
NOAA is celebrating 200 years of science, service, and stewardship. Visit the NOAA 200th celebration Web site to learn more.
USA.gov is the U.S. Government's official Web portal to all Federal, state and local government Web resources and services.
Facebook
NWS on Facebook

AAWU Home :: Display TAF Add Bookmark
TAF CYEV 290638Z 2907/2919 08006KT P6SM BKN050 TEMPO 2907/2919 5SM
     -SN BKN030
    RMK NXT FCST BY 291300Z=

METAR CYEV 290500Z 08007KT 15SM BKN050 M13/M18 A2997 RMK SC7 SLP158= METAR CYEV 290600Z 07005KT 15SM BKN047 M13/M17 A2996 RMK SC7 SLP155= SPECI CYEV 290646Z 08007KT 15SM -SN OVC046 M13/M17 A2996 RMK SC8 SLP154= METAR CYEV 290700Z 08007KT 15SM -SN OVC045 M13/M16 A2996 RMK SC8 SLP154= METAR CYEV 290800Z 07006KT 15SM -SN BKN045 M13/M16 A2995 RMK SC5 SLP152= SPECI CYEV 290822Z 07006KT 15SM SCT050 M13/M16 A2995 RMK SC3 SLP151= METAR CYEV 290900Z 08006KT 15SM BKN054 M13/M16 A2994 RMK SC5 SLP150= METAR CYEV 291000Z 08006KT 15SM FEW050 M13/M16 A2993 RMK SC2 SLP147= METAR CYEV 291100Z 06006KT 15SM FEW050 M14/M17 A2992 RMK SC2 SLP143=
 Alaska TAF Map

NOAA's National Weather Service
Alaska Aviation Weather Unit
6930 Sand Lake Road
Anchorage, AK 99502-1845
Disclaimer
Credits
Glossary
Privacy Policy
About Us
Career Opportunities
Contact AAWU Internet Services Site last modified: April, 17th 2012